createdAt,value
2023-05-01T00:00:15.495Z,15.93
2023-05-01T00:01:21.663Z,17.05
2023-05-01T00:02:24.699Z,13.07
2023-05-01T00:03:26.935Z,11.40
2023-05-01T00:04:29.927Z,16.25
2023-05-01T00:05:31.834Z,14.38
2023-05-01T00:06:34.626Z,16.83
2023-05-01T00:07:36.443Z,13.88
2023-05-01T00:08:39.278Z,14.35
2023-05-01T00:09:41.111Z,15.27
2023-05-01T00:10:45.222Z,13.90
2023-05-01T00:11:47.025Z,15.63
2023-05-01T00:12:49.768Z,12.25
2023-05-01T00:13:51.793Z,14.15
2023-05-01T00:14:55.219Z,15.38
2023-05-01T00:15:57.191Z,18.23
2023-05-01T00:17:00.009Z,13.43
2023-05-01T00:18:01.945Z,17.50
2023-05-01T00:19:05.022Z,14.07
2023-05-01T00:20:08.685Z,13.88
2023-05-01T00:21:11.537Z,14.88
2023-05-01T00:22:13.276Z,14.60
2023-05-01T00:23:15.995Z,13.98
2023-05-01T00:24:17.796Z,13.60
2023-05-01T00:25:20.530Z,12.27
2023-05-01T00:26:27.015Z,12.18
2023-05-01T00:27:29.959Z,12.45
2023-05-01T00:28:32.621Z,14.20
2023-05-01T00:29:35.360Z,14.65
2023-05-01T00:30:37.595Z,15.35
2023-05-01T00:31:41.613Z,18.63
2023-05-01T00:32:43.454Z,13.20
2023-05-01T00:33:46.330Z,15.52
2023-05-01T00:34:48.332Z,18.80
2023-05-01T00:35:51.440Z,16.90
2023-05-01T00:36:53.246Z,16.02
2023-05-01T00:37:55.968Z,13.23
2023-05-01T00:38:57.728Z,13.48
2023-05-01T00:40:00.505Z,14.60
2023-05-01T00:41:02.306Z,16.65
2023-05-01T00:42:06.685Z,15.95
2023-05-01T00:43:08.469Z,15.00
2023-05-01T00:44:11.288Z,15.73
2023-05-01T00:45:14.287Z,18.38
2023-05-01T00:46:18.348Z,19.88
2023-05-01T00:47:20.240Z,18.02
2023-05-01T00:48:23.284Z,14.50
2023-05-01T00:49:25.362Z,20.80
2023-05-01T00:50:28.082Z,18.83
2023-05-01T00:51:30.036Z,12.75
2023-05-01T00:52:32.999Z,19.48
2023-05-01T00:53:34.946Z,17.00
2023-05-01T00:54:37.815Z,18.77
2023-05-01T00:55:42.104Z,18.75
2023-05-01T00:56:44.930Z,18.00
2023-05-01T00:57:48.140Z,18.95
2023-05-01T00:58:52.072Z,20.67
2023-05-01T00:59:54.154Z,16.90
2023-05-01T01:00:57.188Z,19.05
2023-05-01T01:01:59.067Z,17.95
2023-05-01T01:03:02.426Z,16.33
2023-05-01T01:04:05.667Z,12.27
2023-05-01T01:05:07.878Z,16.88
2023-05-01T01:06:17.020Z,13.93
2023-05-01T01:07:22.022Z,12.68
2023-05-01T01:08:31.944Z,16.05
2023-05-01T01:09:40.189Z,17.63
2023-05-01T01:10:48.402Z,19.13
2023-05-01T01:11:56.225Z,24.90
2023-05-01T01:13:05.586Z,20.38
2023-05-01T01:14:12.037Z,36.42
2023-05-01T01:15:20.076Z,46.70
2023-05-01T01:16:28.396Z,60.22
2023-05-01T01:17:34.341Z,52.63
2023-05-01T01:18:40.603Z,62.33
2023-05-01T01:20:10.919Z,60.05
2023-05-01T01:21:17.661Z,46.60
2023-05-01T01:22:23.882Z,39.33
2023-05-01T01:24:26.961Z,38.75
2023-05-01T01:26:04.748Z,48.05
2023-05-01T01:27:24.358Z,44.15
2023-05-01T01:28:56.607Z,31.92
2023-05-01T01:30:15.638Z,44.00
2023-05-01T01:31:19.439Z,46.58
2023-05-01T01:32:40.009Z,48.72
2023-05-01T01:34:01.791Z,42.28
2023-05-01T01:35:06.745Z,43.50
2023-05-01T01:36:17.438Z,41.13
2023-05-01T01:37:22.135Z,41.47
2023-05-01T01:38:30.307Z,48.97
2023-05-01T01:39:40.459Z,48.53
2023-05-01T01:40:46.696Z,43.83
2023-05-01T01:41:52.469Z,46.90
2023-05-01T01:42:59.172Z,34.05
2023-05-01T01:44:05.341Z,34.05
2023-05-01T01:45:12.515Z,38.83
2023-05-01T01:46:17.684Z,28.65
2023-05-01T01:47:21.274Z,34.10
2023-05-01T01:48:26.545Z,23.10
2023-05-01T01:49:31.336Z,27.98
2023-05-01T01:50:34.839Z,23.00
2023-05-01T01:51:39.435Z,23.02
2023-05-01T01:52:42.446Z,24.55
2023-05-01T01:53:47.719Z,19.50
2023-05-01T01:54:52.308Z,20.52
2023-05-01T01:55:55.955Z,21.52
2023-05-01T01:56:59.746Z,19.98
2023-05-01T01:58:04.069Z,23.33
2023-05-01T01:59:07.259Z,19.70
2023-05-01T02:00:11.963Z,18.35
2023-05-01T02:01:20.803Z,17.88
2023-05-01T02:02:24.406Z,18.45
2023-05-01T02:03:26.799Z,21.60
2023-05-01T02:04:31.926Z,15.23
2023-05-01T02:05:34.503Z,18.75
2023-05-01T02:06:37.562Z,19.00
2023-05-01T02:07:40.805Z,21.25
2023-05-01T02:08:44.722Z,16.90
2023-05-01T02:09:46.949Z,17.85
2023-05-01T02:10:50.943Z,15.57
2023-05-01T02:11:53.889Z,16.70
2023-05-01T02:12:59.196Z,18.92
2023-05-01T02:14:01.429Z,20.35
2023-05-01T02:15:06.496Z,16.95
2023-05-01T02:16:08.706Z,18.52
2023-05-01T02:17:11.725Z,20.42
2023-05-01T02:18:14.857Z,14.82
2023-05-01T02:19:18.233Z,20.08
2023-05-01T02:20:22.336Z,20.45
2023-05-01T02:21:26.282Z,17.02
2023-05-01T02:22:28.721Z,15.88
2023-05-01T02:23:33.469Z,18.70
2023-05-01T02:24:35.930Z,15.43
2023-05-01T02:25:40.264Z,15.57
2023-05-01T02:26:43.752Z,18.00
2023-05-01T02:27:49.349Z,20.42
2023-05-01T02:28:51.138Z,17.45
2023-05-01T02:29:54.154Z,18.83
2023-05-01T02:30:57.239Z,17.75
2023-05-01T02:32:00.944Z,21.55
2023-05-01T02:33:03.092Z,18.75
2023-05-01T02:34:05.880Z,21.65
2023-05-01T02:35:08.144Z,19.05
2023-05-01T02:36:13.276Z,21.05
2023-05-01T02:37:16.495Z,16.15
2023-05-01T02:38:19.758Z,14.70
2023-05-01T02:39:23.106Z,20.02
2023-05-01T02:40:25.340Z,18.00
2023-05-01T02:41:28.702Z,16.33
2023-05-01T02:42:31.734Z,18.50
2023-05-01T02:43:34.830Z,16.02
2023-05-01T02:44:41.240Z,15.63
2023-05-01T02:45:46.120Z,22.17
2023-05-01T02:46:50.223Z,16.73
2023-05-01T02:47:56.582Z,22.35
2023-05-01T02:49:01.498Z,18.63
2023-05-01T02:50:04.522Z,19.88
2023-05-01T02:51:08.337Z,19.35
2023-05-01T02:52:11.814Z,21.88
2023-05-01T02:53:15.632Z,21.45
2023-05-01T02:54:45.394Z,20.20
2023-05-01T02:55:48.245Z,21.55
2023-05-01T02:56:51.068Z,22.55
2023-05-01T02:57:53.014Z,20.92
2023-05-01T02:58:56.190Z,21.08
2023-05-01T02:59:58.150Z,22.25
2023-05-01T03:01:01.209Z,19.33
2023-05-01T03:02:03.201Z,19.15
2023-05-01T03:03:06.061Z,23.90
2023-05-01T03:04:08.192Z,18.17
2023-05-01T03:05:11.518Z,16.30
2023-05-01T03:06:14.212Z,20.33
2023-05-01T03:07:18.434Z,19.48
2023-05-01T03:08:21.259Z,20.55
2023-05-01T03:09:24.075Z,16.63
2023-05-01T03:10:25.853Z,18.80
2023-05-01T03:11:28.605Z,22.27
2023-05-01T03:12:30.542Z,18.48
2023-05-01T03:13:33.564Z,20.55
2023-05-01T03:14:35.484Z,27.85
2023-05-01T03:15:38.418Z,23.85
2023-05-01T03:16:40.481Z,24.05
2023-05-01T03:17:43.343Z,22.98
2023-05-01T03:18:45.183Z,23.92
2023-05-01T03:19:49.533Z,25.38
2023-05-01T03:20:52.439Z,19.90
2023-05-01T03:21:55.411Z,20.05
2023-05-01T03:22:59.359Z,22.33
2023-05-01T03:24:02.298Z,22.33
2023-05-01T03:25:06.387Z,20.02
2023-05-01T03:26:09.224Z,24.00
2023-05-01T03:27:11.513Z,20.35
2023-05-01T03:28:14.318Z,19.40
2023-05-01T03:29:16.163Z,23.20
2023-05-01T03:30:20.380Z,22.27
2023-05-01T03:31:22.553Z,19.10
2023-05-01T03:32:25.561Z,21.75
2023-05-01T03:33:29.223Z,25.85
2023-05-01T03:34:32.027Z,19.75
2023-05-01T03:35:33.919Z,23.90
2023-05-01T03:36:37.223Z,22.65
2023-05-01T03:37:39.553Z,21.83
2023-05-01T03:38:43.814Z,21.95
2023-05-01T03:39:46.564Z,22.40
2023-05-01T03:41:27.573Z,20.65
2023-05-01T03:42:48.535Z,22.02
2023-05-01T03:43:56.423Z,18.83
2023-05-01T03:45:08.257Z,23.77
2023-05-01T03:46:11.423Z,27.15
2023-05-01T03:47:13.196Z,29.95
2023-05-01T03:48:17.540Z,27.05
2023-05-01T03:49:19.370Z,28.25
2023-05-01T03:50:24.235Z,23.67
2023-05-01T03:51:27.341Z,27.98
2023-05-01T03:52:31.570Z,31.30
2023-05-01T03:53:33.672Z,29.60
2023-05-01T03:54:41.541Z,26.38
2023-05-01T03:56:09.898Z,25.25
2023-05-01T03:57:11.805Z,29.73
2023-05-01T03:58:17.941Z,30.60
2023-05-01T03:59:19.688Z,32.03
2023-05-01T04:00:22.470Z,25.02
2023-05-01T04:01:24.312Z,30.83
2023-05-01T04:02:28.629Z,33.65
2023-05-01T04:03:30.568Z,30.90
2023-05-01T04:04:33.895Z,28.80
2023-05-01T04:05:36.005Z,28.95
2023-05-01T04:06:39.378Z,30.05
2023-05-01T04:07:41.938Z,25.15
2023-05-01T04:08:44.723Z,28.38
2023-05-01T04:09:48.385Z,25.17
2023-05-01T04:10:51.585Z,24.40
2023-05-01T04:11:53.421Z,24.42
2023-05-01T04:12:56.150Z,31.50
2023-05-01T04:13:57.956Z,28.75
2023-05-01T04:15:01.056Z,39.63
2023-05-01T04:16:03.065Z,39.97
2023-05-01T04:17:06.141Z,41.08
2023-05-01T04:18:11.292Z,68.05
2023-05-01T04:19:14.214Z,58.47
2023-05-01T04:20:19.461Z,40.67
2023-05-01T04:21:22.749Z,46.75
2023-05-01T04:22:26.982Z,47.03
2023-05-01T04:23:29.829Z,46.17
2023-05-01T04:24:33.931Z,47.75
2023-05-01T04:25:38.188Z,42.72
2023-05-01T04:26:46.089Z,36.08
2023-05-01T04:27:48.852Z,42.25
2023-05-01T04:28:50.899Z,45.83
2023-05-01T04:29:58.524Z,43.67
2023-05-01T04:31:00.938Z,43.20
2023-05-01T04:32:03.828Z,44.95
2023-05-01T04:33:11.301Z,46.40
2023-05-01T04:34:14.988Z,45.67
2023-05-01T04:35:16.738Z,46.97
2023-05-01T04:36:21.013Z,41.85
2023-05-01T04:37:23.010Z,45.22
2023-05-01T04:38:25.768Z,37.30
2023-05-01T04:39:30.287Z,37.80
2023-05-01T04:40:33.916Z,34.17
2023-05-01T04:41:37.255Z,31.60
2023-05-01T04:42:41.287Z,29.52
2023-05-01T04:43:46.792Z,37.72
2023-05-01T04:44:53.685Z,46.25
2023-05-01T04:45:56.050Z,46.15
2023-05-01T04:46:58.950Z,45.03
2023-05-01T04:48:00.838Z,37.58
2023-05-01T04:49:03.647Z,42.70
2023-05-01T04:50:06.522Z,40.58
2023-05-01T04:51:09.639Z,34.83
2023-05-01T04:52:12.491Z,35.17
2023-05-01T04:53:41.190Z,35.75
2023-05-01T04:54:53.047Z,32.75
2023-05-01T04:55:57.506Z,34.08
2023-05-01T04:57:03.232Z,25.27
2023-05-01T04:58:06.196Z,19.83
2023-05-01T04:59:10.169Z,17.98
2023-05-01T05:00:13.856Z,14.70
2023-05-01T05:01:25.152Z,12.10
2023-05-01T05:02:28.509Z,12.82
2023-05-01T05:03:31.026Z,13.80
2023-05-01T05:04:34.373Z,14.93
2023-05-01T05:05:36.271Z,12.18
2023-05-01T05:06:42.676Z,11.45
2023-05-01T05:07:58.129Z,14.25
2023-05-01T05:09:04.879Z,12.07
2023-05-01T05:10:08.517Z,13.30
2023-05-01T05:11:11.099Z,12.27
2023-05-01T05:12:26.003Z,13.85
2023-05-01T05:13:28.256Z,12.02
2023-05-01T05:14:36.858Z,12.65
2023-05-01T05:15:38.707Z,12.23
2023-05-01T05:16:43.247Z,15.38
2023-05-01T05:17:45.566Z,11.93
2023-05-01T05:18:48.991Z,9.77
2023-05-01T05:19:51.575Z,13.15
2023-05-01T05:20:54.459Z,10.43
2023-05-01T05:21:56.760Z,12.70
2023-05-01T05:22:59.561Z,10.35
2023-05-01T05:24:01.352Z,10.40
2023-05-01T05:25:06.792Z,12.18
2023-05-01T05:26:08.537Z,10.30
2023-05-01T05:27:11.328Z,8.15
2023-05-01T05:28:14.491Z,9.98
2023-05-01T05:29:18.550Z,11.93
2023-05-01T05:30:20.334Z,12.02
2023-05-01T05:31:23.570Z,10.02
2023-05-01T05:32:25.562Z,9.68
2023-05-01T05:33:29.074Z,10.70
2023-05-01T05:34:31.180Z,9.45
2023-05-01T05:35:34.331Z,10.60
2023-05-01T05:36:37.830Z,9.60
2023-05-01T05:37:40.093Z,8.55
2023-05-01T05:38:43.188Z,11.77
2023-05-01T05:39:48.968Z,9.07
2023-05-01T05:40:51.814Z,11.00
2023-05-01T05:41:55.358Z,8.90
2023-05-01T05:42:57.388Z,8.43
2023-05-01T05:44:03.985Z,13.38
2023-05-01T05:45:07.704Z,9.35
2023-05-01T05:46:11.465Z,9.95
2023-05-01T05:47:14.676Z,9.02
2023-05-01T05:48:17.627Z,10.00
2023-05-01T05:49:19.390Z,6.30
2023-05-01T05:50:22.379Z,10.48
2023-05-01T05:51:25.131Z,7.82
2023-05-01T05:52:28.000Z,8.82
2023-05-01T05:53:32.189Z,8.43
2023-05-01T05:54:34.886Z,7.18
2023-05-01T05:55:37.625Z,10.15
2023-05-01T05:56:41.495Z,8.98
2023-05-01T05:57:44.580Z,7.25
2023-05-01T05:58:46.369Z,8.82
2023-05-01T05:59:50.684Z,8.77
2023-05-01T06:00:56.512Z,7.47
2023-05-01T06:01:59.592Z,9.93
2023-05-01T06:03:02.564Z,7.38
2023-05-01T06:04:06.788Z,5.63
2023-05-01T06:05:12.441Z,7.25
2023-05-01T06:06:15.431Z,6.63
2023-05-01T06:07:17.469Z,6.57
2023-05-01T06:08:22.406Z,9.27
2023-05-01T06:09:24.276Z,5.68
2023-05-01T06:10:27.022Z,7.47
2023-05-01T06:11:28.842Z,7.30
2023-05-01T06:12:34.127Z,7.28
2023-05-01T06:13:39.087Z,6.88
2023-05-01T06:14:41.172Z,5.28
2023-05-01T06:15:45.478Z,5.18
2023-05-01T06:16:47.512Z,5.65
2023-05-01T06:17:50.828Z,4.47
2023-05-01T06:18:56.001Z,7.00
2023-05-01T06:19:59.118Z,5.45
2023-05-01T06:21:01.082Z,5.22
2023-05-01T06:22:04.239Z,5.25
2023-05-01T06:23:10.714Z,4.82
2023-05-01T06:24:33.929Z,8.15
2023-05-01T06:25:37.373Z,5.03
2023-05-01T06:26:40.090Z,4.75
2023-05-01T06:27:42.039Z,5.95
2023-05-01T06:28:44.942Z,4.30
2023-05-01T06:29:46.855Z,4.07
2023-05-01T06:30:50.934Z,6.07
2023-05-01T06:31:54.440Z,7.05
2023-05-01T06:32:57.343Z,6.13
2023-05-01T06:33:59.766Z,3.50
2023-05-01T06:35:12.607Z,3.72
2023-05-01T06:36:14.410Z,6.53
2023-05-01T06:37:17.197Z,5.30
2023-05-01T06:38:19.065Z,5.25
2023-05-01T06:39:21.827Z,4.15
2023-05-01T06:40:23.762Z,7.80
2023-05-01T06:41:27.083Z,6.15
2023-05-01T06:42:28.902Z,4.82
2023-05-01T06:43:37.548Z,4.35
2023-05-01T06:44:39.638Z,4.45
2023-05-01T06:45:42.792Z,5.75
2023-05-01T06:46:46.033Z,4.33
2023-05-01T06:47:49.082Z,4.20
2023-05-01T06:48:50.869Z,3.90
2023-05-01T06:49:53.703Z,7.07
2023-05-01T06:50:56.096Z,4.07
2023-05-01T06:51:58.816Z,3.87
2023-05-01T06:53:02.585Z,4.07
2023-05-01T06:54:06.453Z,4.85
2023-05-01T06:55:09.132Z,4.00
2023-05-01T06:56:11.964Z,4.30
2023-05-01T06:57:13.829Z,3.00
2023-05-01T06:59:25.130Z,3.37
2023-05-01T07:00:27.964Z,5.30
2023-05-01T07:01:30.160Z,3.47
2023-05-01T07:02:36.853Z,5.17
2023-05-01T07:03:38.885Z,4.90
2023-05-01T07:04:41.824Z,3.60
2023-05-01T07:05:43.625Z,4.53
2023-05-01T07:06:46.575Z,3.50
2023-05-01T07:07:58.049Z,5.73
2023-05-01T07:09:03.859Z,6.20
2023-05-01T07:10:06.363Z,4.60
2023-05-01T07:11:09.102Z,3.83
2023-05-01T07:12:10.923Z,5.63
2023-05-01T07:13:13.715Z,3.80
2023-05-01T07:14:15.823Z,7.20
2023-05-01T07:15:18.750Z,7.93
2023-05-01T07:16:21.011Z,3.87
2023-05-01T07:17:23.847Z,5.67
2023-05-01T07:18:26.970Z,5.00
2023-05-01T07:19:29.835Z,2.97
2023-05-01T07:20:31.697Z,5.17
2023-05-01T07:21:34.795Z,2.43
2023-05-01T07:22:38.950Z,4.57
2023-05-01T07:23:41.722Z,5.87
2023-05-01T07:24:43.491Z,4.23
2023-05-01T07:25:46.352Z,5.13
2023-05-01T07:26:48.078Z,2.97
2023-05-01T07:27:50.824Z,3.23
2023-05-01T07:28:52.730Z,3.13
2023-05-01T07:29:56.846Z,2.13
2023-05-01T07:30:58.952Z,3.57
2023-05-01T07:32:01.732Z,3.47
2023-05-01T07:33:05.837Z,4.20
2023-05-01T07:34:10.183Z,3.03
2023-05-01T07:35:11.994Z,3.10
2023-05-01T07:36:14.763Z,5.03
2023-05-01T07:37:16.480Z,4.27
2023-05-01T07:38:19.310Z,3.93
2023-05-01T07:39:21.210Z,4.97
2023-05-01T07:40:23.941Z,4.70
2023-05-01T07:41:26.719Z,4.10
2023-05-01T07:42:28.457Z,6.07
2023-05-01T07:43:31.214Z,4.83
2023-05-01T07:44:33.242Z,3.53
2023-05-01T07:45:36.014Z,3.77
2023-05-01T07:46:39.300Z,7.00
2023-05-01T07:47:41.148Z,3.83
2023-05-01T07:48:44.391Z,5.87
2023-05-01T07:49:48.432Z,3.30
2023-05-01T07:50:50.263Z,4.10
2023-05-01T07:51:52.992Z,4.17
2023-05-01T07:52:54.706Z,4.83
2023-05-01T07:53:57.490Z,5.90
2023-05-01T07:55:00.221Z,6.50
2023-05-01T07:56:06.866Z,3.40
2023-05-01T07:57:09.625Z,2.70
2023-05-01T07:58:11.409Z,7.30
2023-05-01T07:59:15.076Z,4.73
2023-05-01T08:00:17.874Z,4.17
2023-05-01T08:01:21.003Z,4.57
2023-05-01T08:02:22.842Z,4.83
2023-05-01T08:03:25.815Z,3.27
2023-05-01T08:04:29.427Z,5.57
2023-05-01T08:05:33.626Z,4.63
2023-05-01T08:06:36.431Z,3.93
2023-05-01T08:07:38.221Z,4.00
2023-05-01T08:08:41.039Z,4.10
2023-05-01T08:09:43.070Z,5.27
2023-05-01T08:10:45.928Z,3.17
2023-05-01T08:11:48.638Z,3.70
2023-05-01T08:12:50.575Z,4.10
2023-05-01T08:13:53.301Z,4.67
2023-05-01T08:14:55.137Z,4.70
2023-05-01T08:16:02.027Z,3.10
2023-05-01T08:17:03.866Z,4.10
2023-05-01T08:18:06.890Z,4.83
2023-05-01T08:19:08.782Z,2.93
2023-05-01T08:20:13.421Z,3.50
2023-05-01T08:21:17.480Z,5.83
2023-05-01T08:22:19.309Z,3.13
2023-05-01T08:23:22.043Z,3.30
2023-05-01T08:24:23.911Z,4.70
2023-05-01T08:25:26.879Z,3.57
2023-05-01T08:26:29.617Z,4.80
2023-05-01T08:27:31.510Z,3.87
2023-05-01T08:28:36.073Z,3.77
2023-05-01T08:29:37.798Z,5.70
2023-05-01T08:30:40.544Z,3.77
2023-05-01T08:31:43.696Z,5.03
2023-05-01T08:32:46.495Z,3.30
2023-05-01T08:33:48.270Z,4.60
2023-05-01T08:34:51.038Z,3.17
2023-05-01T08:35:54.070Z,7.73
2023-05-01T08:36:57.167Z,6.57
2023-05-01T08:38:01.608Z,4.53
2023-05-01T08:39:03.769Z,4.83
2023-05-01T08:40:08.965Z,5.80
2023-05-01T08:41:17.076Z,7.13
2023-05-01T08:42:18.851Z,4.40
2023-05-01T08:43:21.751Z,4.17
2023-05-01T08:44:24.594Z,4.97
2023-05-01T08:45:28.374Z,6.03
2023-05-01T08:46:36.623Z,4.67
2023-05-01T08:47:41.093Z,3.40
2023-05-01T08:48:44.121Z,4.17
2023-05-01T08:49:47.160Z,5.17
2023-05-01T08:50:50.619Z,3.07
2023-05-01T08:51:54.126Z,4.73
2023-05-01T08:52:58.556Z,5.23
2023-05-01T08:54:01.917Z,4.77
2023-05-01T08:55:05.369Z,5.87
2023-05-01T08:56:08.399Z,2.77
2023-05-01T08:57:12.246Z,6.00
2023-05-01T08:58:15.750Z,5.17
2023-05-01T08:59:18.540Z,7.23
2023-05-01T09:00:22.396Z,4.60
2023-05-01T09:01:25.217Z,4.63
2023-05-01T09:02:28.692Z,3.20
2023-05-01T09:03:32.066Z,2.97
2023-05-01T09:04:37.039Z,2.80
2023-05-01T09:05:39.030Z,3.43
2023-05-01T09:06:44.815Z,2.77
2023-05-01T09:07:47.423Z,4.07
2023-05-01T09:08:51.481Z,4.10
2023-05-01T09:09:54.378Z,4.83
2023-05-01T09:10:57.547Z,3.47
2023-05-01T09:12:02.968Z,5.03
2023-05-01T09:13:07.114Z,3.70
2023-05-01T09:14:09.259Z,4.80
2023-05-01T09:15:12.661Z,3.90
2023-05-01T09:16:14.634Z,4.13
2023-05-01T09:17:17.449Z,3.90
2023-05-01T09:18:19.343Z,3.60
2023-05-01T09:19:22.328Z,4.63
2023-05-01T09:20:24.527Z,3.17
2023-05-01T09:21:28.420Z,3.87
2023-05-01T09:22:30.673Z,3.70
2023-05-01T09:23:33.505Z,5.43
2023-05-01T09:24:36.863Z,4.27
2023-05-01T09:25:39.623Z,4.70
2023-05-01T09:26:41.939Z,4.87
2023-05-01T09:27:45.507Z,3.50
2023-05-01T09:28:48.257Z,4.53
2023-05-01T09:29:51.334Z,3.80
2023-05-01T09:30:53.061Z,3.70
2023-05-01T09:31:56.643Z,2.43
2023-05-01T09:33:08.480Z,3.17
2023-05-01T09:34:11.306Z,5.37
2023-05-01T09:35:14.907Z,4.10
2023-05-01T09:36:18.117Z,2.60
2023-05-01T09:37:29.264Z,3.63
2023-05-01T09:38:32.427Z,4.20
2023-05-01T09:39:34.257Z,5.87
2023-05-01T09:40:38.374Z,6.67
2023-05-01T09:41:52.015Z,3.10
2023-05-01T09:42:56.062Z,6.47
2023-05-01T09:43:58.961Z,3.37
2023-05-01T09:45:01.736Z,4.67
2023-05-01T09:46:06.551Z,3.07
2023-05-01T09:47:08.361Z,3.10
2023-05-01T09:48:12.243Z,3.83
2023-05-01T09:49:15.014Z,3.33
2023-05-01T09:50:29.337Z,3.00
2023-05-01T09:51:33.109Z,3.30
2023-05-01T09:52:34.975Z,4.40
2023-05-01T09:53:41.940Z,4.23
2023-05-01T09:54:44.374Z,3.80
2023-05-01T09:56:01.303Z,5.50
2023-05-01T09:57:04.051Z,4.63
2023-05-01T09:58:06.528Z,4.33
2023-05-01T09:59:17.312Z,4.20
2023-05-01T10:00:21.823Z,7.47
2023-05-01T10:01:41.002Z,3.93
2023-05-01T10:02:45.520Z,4.27
2023-05-01T10:03:54.890Z,3.80
2023-05-01T10:04:58.450Z,3.50
2023-05-01T10:06:02.871Z,4.73
2023-05-01T10:07:13.926Z,8.77
2023-05-01T10:08:15.869Z,4.53
2023-05-01T10:09:28.726Z,3.73
2023-05-01T10:10:31.683Z,2.53
2023-05-01T10:11:48.243Z,3.33
2023-05-01T10:12:51.398Z,4.10
2023-05-01T10:14:07.785Z,3.03
2023-05-01T10:15:24.095Z,4.10
2023-05-01T10:16:31.809Z,2.63
2023-05-01T10:17:35.156Z,2.27
2023-05-01T10:18:37.816Z,5.63
2023-05-01T10:19:40.570Z,3.67
2023-05-01T10:20:43.539Z,3.97
2023-05-01T10:21:45.527Z,3.23
2023-05-01T10:22:49.024Z,4.73
2023-05-01T10:23:52.163Z,5.27
2023-05-01T10:24:55.717Z,3.17
2023-05-01T10:25:58.444Z,2.60
2023-05-01T10:27:04.711Z,2.67
2023-05-01T10:28:06.635Z,2.53
2023-05-01T10:29:09.928Z,3.30
2023-05-01T10:30:12.640Z,3.93
2023-05-01T10:31:15.811Z,3.43
2023-05-01T10:32:18.604Z,2.37
2023-05-01T10:33:20.457Z,3.73
2023-05-01T10:34:26.227Z,4.73
2023-05-01T10:35:33.218Z,2.83
2023-05-01T10:36:39.208Z,2.33
2023-05-01T10:37:46.815Z,4.27
2023-05-01T10:38:49.614Z,3.13
2023-05-01T10:39:51.423Z,3.00
2023-05-01T10:40:54.408Z,2.57
2023-05-01T10:42:11.447Z,4.33
2023-05-01T10:43:14.127Z,3.53
2023-05-01T10:44:24.657Z,3.97
2023-05-01T10:45:30.115Z,4.30
2023-05-01T10:46:32.929Z,3.13
2023-05-01T10:47:48.865Z,3.13
2023-05-01T10:48:57.420Z,3.87
2023-05-01T10:50:08.002Z,2.33
2023-05-01T10:51:10.882Z,2.33
2023-05-01T10:52:14.117Z,3.70
2023-05-01T10:53:19.264Z,2.53
2023-05-01T10:54:28.360Z,4.27
2023-05-01T10:55:33.893Z,4.20
2023-05-01T10:56:46.704Z,2.30
2023-05-01T10:57:49.871Z,1.80
2023-05-01T10:58:57.055Z,2.90
2023-05-01T11:00:12.812Z,2.33
2023-05-01T11:01:33.207Z,2.53
2023-05-01T11:02:36.212Z,3.20
2023-05-01T11:03:40.150Z,3.27
2023-05-01T11:04:53.522Z,3.20
2023-05-01T11:06:05.455Z,2.37
2023-05-01T11:07:19.002Z,2.90
2023-05-01T11:08:30.772Z,3.97
2023-05-01T11:09:38.012Z,1.97
2023-05-01T11:10:39.770Z,3.23
2023-05-01T11:11:50.275Z,2.00
2023-05-01T11:12:54.575Z,3.97
2023-05-01T11:13:57.949Z,5.20
2023-05-01T11:15:08.332Z,1.93
2023-05-01T11:16:50.918Z,3.27
2023-05-01T11:17:52.930Z,3.33
2023-05-01T11:18:55.735Z,3.20
2023-05-01T11:19:58.055Z,2.70
2023-05-01T11:21:02.137Z,2.60
2023-05-01T11:22:12.306Z,2.83
2023-05-01T11:23:21.969Z,4.00
2023-05-01T11:24:31.616Z,3.87
2023-05-01T11:25:34.308Z,2.00
2023-05-01T11:26:39.783Z,2.13
2023-05-01T11:27:47.548Z,2.13
2023-05-01T11:28:55.364Z,2.47
2023-05-01T11:29:59.085Z,2.20
2023-05-01T11:31:02.478Z,1.63
2023-05-01T11:32:04.618Z,2.43
2023-05-01T11:33:10.543Z,2.10
2023-05-01T11:34:14.039Z,2.00
2023-05-01T11:35:17.504Z,1.77
2023-05-01T11:36:20.885Z,2.87
2023-05-01T11:37:41.185Z,2.00
2023-05-01T11:38:50.799Z,4.20
2023-05-01T11:39:55.051Z,2.53
2023-05-01T11:41:00.250Z,2.77
2023-05-01T11:42:09.486Z,3.17
2023-05-01T11:43:12.573Z,3.73
2023-05-01T11:44:18.425Z,2.63
2023-05-01T11:45:20.346Z,2.20
2023-05-01T11:46:27.750Z,2.97
2023-05-01T11:47:32.433Z,3.77
2023-05-01T11:48:35.293Z,3.10
2023-05-01T11:49:37.248Z,3.90
2023-05-01T11:50:40.191Z,1.70
2023-05-01T11:51:42.962Z,3.40
2023-05-01T11:52:46.564Z,2.40
2023-05-01T11:54:01.663Z,4.03
2023-05-01T11:55:04.844Z,2.90
2023-05-01T11:56:26.717Z,2.00
2023-05-01T11:57:29.307Z,2.57
2023-05-01T11:58:33.827Z,1.67
2023-05-01T11:59:36.951Z,2.17
2023-05-01T12:00:41.689Z,2.17
2023-05-01T12:01:45.457Z,2.00
2023-05-01T12:02:57.476Z,1.93
2023-05-01T12:04:00.537Z,1.60
2023-05-01T12:05:15.606Z,1.60
2023-05-01T12:06:18.420Z,2.47
2023-05-01T12:07:21.241Z,2.33
2023-05-01T12:08:24.314Z,2.97
2023-05-01T12:09:26.935Z,1.90
2023-05-01T12:10:29.791Z,1.97
2023-05-01T12:11:32.737Z,4.60
2023-05-01T12:12:34.602Z,1.97
2023-05-01T12:13:37.520Z,1.70
2023-05-01T12:14:42.130Z,2.07
2023-05-01T12:15:45.280Z,1.70
2023-05-01T12:16:48.543Z,2.53
2023-05-01T12:17:50.439Z,1.87
2023-05-01T12:18:53.378Z,1.90
2023-05-01T12:19:55.211Z,1.73
2023-05-01T12:20:57.937Z,2.90
2023-05-01T12:22:06.759Z,2.07
2023-05-01T12:23:11.472Z,3.73
2023-05-01T12:24:16.464Z,1.87
2023-05-01T12:25:19.758Z,2.10
2023-05-01T12:26:25.175Z,2.37
2023-05-01T12:27:26.978Z,2.47
2023-05-01T12:28:30.268Z,2.00
2023-05-01T12:29:41.295Z,5.17
2023-05-01T12:30:45.156Z,4.77
2023-05-01T12:31:48.286Z,2.83
2023-05-01T12:32:52.155Z,2.17
2023-05-01T12:33:55.248Z,2.73
2023-05-01T12:34:58.161Z,3.37
2023-05-01T12:36:10.485Z,2.33
2023-05-01T12:37:13.209Z,2.00
2023-05-01T12:38:16.013Z,3.20
2023-05-01T12:39:18.857Z,1.90
2023-05-01T12:40:22.928Z,4.27
2023-05-01T12:41:38.615Z,1.90
2023-05-01T12:42:40.580Z,1.90
2023-05-01T12:43:44.411Z,5.10
2023-05-01T12:44:47.759Z,2.53
2023-05-01T12:45:53.820Z,1.93
2023-05-01T12:46:56.809Z,3.17
2023-05-01T12:47:59.831Z,3.80
2023-05-01T12:49:01.747Z,2.50
2023-05-01T12:50:05.122Z,2.47
2023-05-01T12:51:07.757Z,3.23
2023-05-01T12:52:10.855Z,1.80
2023-05-01T12:53:13.872Z,1.83
2023-05-01T12:54:20.653Z,2.63
2023-05-01T12:55:23.711Z,2.93
2023-05-01T12:56:25.723Z,2.00
2023-05-01T12:57:28.490Z,2.87
2023-05-01T12:58:36.819Z,1.67
2023-05-01T12:59:40.033Z,1.80
2023-05-01T13:00:45.962Z,2.43
2023-05-01T13:01:48.027Z,3.50
2023-05-01T13:02:50.912Z,2.13
2023-05-01T13:03:53.177Z,2.77
2023-05-01T13:05:06.848Z,3.37
2023-05-01T13:06:10.036Z,3.37
2023-05-01T13:07:14.832Z,1.70
2023-05-01T13:08:25.903Z,3.90
2023-05-01T13:09:30.918Z,2.37
2023-05-01T13:10:32.900Z,2.20
2023-05-01T13:11:35.899Z,3.27
2023-05-01T13:12:44.860Z,1.80
2023-05-01T13:13:48.400Z,2.33
2023-05-01T13:14:50.825Z,2.73
2023-05-01T13:15:55.023Z,2.20
2023-05-01T13:16:57.014Z,2.70
2023-05-01T13:18:05.434Z,3.17
2023-05-01T13:19:08.485Z,2.23
2023-05-01T13:20:12.452Z,2.23
2023-05-01T13:21:16.891Z,2.10
2023-05-01T13:22:18.748Z,2.67
2023-05-01T13:23:21.594Z,3.87
2023-05-01T13:24:24.189Z,2.60
2023-05-01T13:25:27.238Z,2.10
2023-05-01T13:26:31.384Z,3.10
2023-05-01T13:27:34.356Z,3.67
2023-05-01T13:28:41.063Z,3.17
2023-05-01T13:29:45.554Z,2.20
2023-05-01T13:30:47.460Z,2.60
2023-05-01T13:31:51.578Z,3.33
2023-05-01T13:32:54.657Z,3.07
2023-05-01T13:33:59.565Z,2.73
2023-05-01T13:35:01.922Z,3.20
2023-05-01T13:36:11.239Z,4.13
2023-05-01T13:37:22.346Z,2.87
2023-05-01T13:38:25.037Z,2.13
2023-05-01T13:39:27.858Z,3.87
2023-05-01T13:40:29.754Z,3.43
2023-05-01T13:41:32.495Z,1.70
2023-05-01T13:42:34.430Z,2.10
2023-05-01T13:43:37.704Z,2.70
2023-05-01T13:44:44.074Z,2.10
2023-05-01T13:45:47.316Z,2.67
2023-05-01T13:46:51.618Z,3.70
2023-05-01T13:47:55.217Z,4.33
2023-05-01T13:48:59.990Z,2.00
2023-05-01T13:50:03.286Z,2.77
2023-05-01T13:51:05.260Z,1.83
2023-05-01T13:52:08.015Z,2.10
2023-05-01T13:53:11.183Z,2.27
2023-05-01T13:54:14.103Z,3.40
2023-05-01T13:55:17.484Z,4.30
2023-05-01T13:56:20.318Z,4.80
2023-05-01T13:57:22.375Z,6.70
2023-05-01T13:58:25.127Z,2.67
2023-05-01T13:59:33.434Z,2.43
2023-05-01T14:00:35.373Z,2.63
2023-05-01T14:01:42.569Z,2.40
2023-05-01T14:02:48.697Z,4.73
2023-05-01T14:03:52.327Z,3.57
2023-05-01T14:04:54.458Z,1.87
2023-05-01T14:05:57.279Z,2.07
2023-05-01T14:07:01.267Z,2.43
2023-05-01T14:08:04.009Z,3.10
2023-05-01T14:09:05.757Z,5.37
2023-05-01T14:10:10.966Z,4.43